Time;durP1;ratioP1;P1;durP2;ratioP2;P2;SDS_P1;SDS_P2;PMS_P1;PMS_P2;Temp;Humidity;BMP_temperature;BMP_pressure;BME280_temperature;BME280_humidity;BME280_pressure;Samples;Min_cycle;Max_cycle;Signal;HPM_P1;HPM_P2
2023/10/25 00:01:58;;;;;;;2.80;1.63;;;;;;;;;;5053506;28;20226;-65
2023/10/25 00:04:25;;;;;;;5.67;1.90;;;;;;;;;;5050229;28;20199;-65
2023/10/25 00:06:53;;;;;;;6.60;2.17;;;;;;;;;;5050441;28;20207;-65
2023/10/25 00:09:21;;;;;;;2.00;1.50;;;;;;;;;;5051341;28;20298;-65
2023/10/25 00:11:50;;;;;;;2.77;1.77;;;;;;;;;;5054866;28;20211;-65
2023/10/25 00:14:17;;;;;;;3.37;1.70;;;;;;;;;;5053340;28;20218;-65
2023/10/25 00:16:44;;;;;;;3.13;2.00;;;;;;;;;;5049654;28;20203;-65
2023/10/25 00:19:11;;;;;;;3.70;2.00;;;;;;;;;;5052577;28;20208;-71
2023/10/25 00:21:38;;;;;;;8.47;2.20;;;;;;;;;;5050849;28;20196;-71
2023/10/25 00:24:07;;;;;;;3.77;1.60;;;;;;;;;;5048401;28;20246;-72
2023/10/25 00:26:34;;;;;;;5.07;1.80;;;;;;;;;;5050723;28;20290;-71
2023/10/25 00:29:02;;;;;;;2.83;1.50;;;;;;;;;;5052611;28;20199;-71
2023/10/25 00:31:29;;;;;;;3.57;1.30;;;;;;;;;;5051625;28;20223;-71
2023/10/25 00:33:57;;;;;;;4.30;1.50;;;;;;;;;;5049400;28;20210;-72
2023/10/25 00:36:24;;;;;;;4.33;1.30;;;;;;;;;;5051042;28;20326;-71
2023/10/25 00:38:51;;;;;;;4.87;1.57;;;;;;;;;;5049176;28;20242;-71
2023/10/25 00:41:18;;;;;;;2.30;1.30;;;;;;;;;;5051206;28;20196;-72
2023/10/25 00:43:45;;;;;;;5.07;1.20;;;;;;;;;;5051206;28;20206;-72
2023/10/25 00:46:14;;;;;;;2.73;1.20;;;;;;;;;;5052066;28;20211;-69
2023/10/25 00:48:42;;;;;;;3.40;1.27;;;;;;;;;;5052067;28;20214;-71
2023/10/25 00:51:10;;;;;;;1.43;1.10;;;;;;;;;;5051768;28;20234;-71
2023/10/25 00:53:39;;;;;;;2.00;1.20;;;;;;;;;;5048093;28;20204;-71
2023/10/25 00:56:06;;;;;;;1.17;1.00;;;;;;;;;;5051725;28;20199;-71
2023/10/25 00:58:34;;;;;;;1.73;1.00;;;;;;;;;;5050584;28;20203;-71
2023/10/25 01:01:01;;;;;;;2.57;1.03;;;;;;;;;;5050302;28;20200;-71
2023/10/25 01:03:30;;;;;;;3.37;1.40;;;;;;;;;;5050335;28;20216;-71
2023/10/25 01:05:57;;;;;;;3.47;1.57;;;;;;;;;;5051178;28;20210;-71
2023/10/25 01:08:24;;;;;;;2.93;1.63;;;;;;;;;;5047785;28;20210;-71
2023/10/25 01:10:52;;;;;;;3.20;1.93;;;;;;;;;;5048164;28;20249;-70
2023/10/25 01:13:19;;;;;;;5.63;2.80;;;;;;;;;;5050023;28;20225;-71
2023/10/25 01:15:46;;;;;;;5.33;2.70;;;;;;;;;;5050278;28;20223;-71
2023/10/25 01:18:14;;;;;;;4.20;3.00;;;;;;;;;;5048941;28;20207;-71
2023/10/25 01:20:43;;;;;;;28.13;3.80;;;;;;;;;;5046661;28;20199;-70
2023/10/25 01:23:11;;;;;;;176.13;7.10;;;;;;;;;;5050246;28;20203;-71
2023/10/25 01:25:39;;;;;;;84.03;5.20;;;;;;;;;;5050239;28;20196;-71
2023/10/25 01:28:06;;;;;;;62.57;4.20;;;;;;;;;;5048270;28;20199;-65
2023/10/25 01:30:33;;;;;;;23.43;3.07;;;;;;;;;;5050763;28;20227;-65
2023/10/25 01:33:01;;;;;;;31.27;3.53;;;;;;;;;;5051547;28;20211;-65
2023/10/25 01:35:29;;;;;;;8.30;2.60;;;;;;;;;;5052127;28;20214;-66
2023/10/25 01:37:56;;;;;;;11.60;2.80;;;;;;;;;;5052149;28;20234;-65
2023/10/25 01:40:24;;;;;;;3.93;1.97;;;;;;;;;;5050217;28;20495;-65
2023/10/25 01:42:53;;;;;;;3.17;2.10;;;;;;;;;;5049119;28;20195;-65
2023/10/25 01:45:21;;;;;;;2.53;2.13;;;;;;;;;;5051251;28;20198;-66
2023/10/25 01:47:49;;;;;;;5.73;2.03;;;;;;;;;;5050772;28;20207;-66
2023/10/25 01:50:16;;;;;;;7.13;2.03;;;;;;;;;;5050690;28;20209;-65
2023/10/25 01:52:43;;;;;;;13.77;2.13;;;;;;;;;;5051888;28;20196;-66
2023/10/25 01:55:10;;;;;;;10.73;2.00;;;;;;;;;;5050588;28;20211;-65
2023/10/25 01:57:39;;;;;;;12.00;2.30;;;;;;;;;;5049081;28;20199;-65
2023/10/25 02:00:07;;;;;;;18.67;2.30;;;;;;;;;;5050888;28;20211;-65
2023/10/25 02:02:34;;;;;;;5.37;1.90;;;;;;;;;;5048613;28;20215;-65
2023/10/25 02:05:01;;;;;;;2.17;1.47;;;;;;;;;;5047852;28;20204;-65
2023/10/25 02:07:28;;;;;;;1.60;1.50;;;;;;;;;;5049003;28;20212;-65
2023/10/25 02:09:56;;;;;;;3.10;1.50;;;;;;;;;;5049989;28;20261;-65
2023/10/25 02:12:23;;;;;;;2.00;1.80;;;;;;;;;;5048517;28;20233;-65
2023/10/25 02:14:51;;;;;;;1.70;1.60;;;;;;;;;;5048685;28;20196;-65
2023/10/25 02:17:18;;;;;;;2.00;1.90;;;;;;;;;;5050550;28;20199;-65
2023/10/25 02:19:46;;;;;;;1.40;1.30;;;;;;;;;;5050878;28;20211;-65
2023/10/25 02:22:14;;;;;;;2.83;1.57;;;;;;;;;;5048937;28;20274;-66
2023/10/25 02:24:41;;;;;;;1.40;1.30;;;;;;;;;;5048189;28;20210;-65
2023/10/25 02:27:08;;;;;;;1.50;1.40;;;;;;;;;;5044489;28;20297;-66
2023/10/25 02:29:36;;;;;;;4.13;1.30;;;;;;;;;;5048098;28;20203;-65
2023/10/25 02:32:07;;;;;;;1.60;1.50;;;;;;;;;;5052335;28;20219;-65
2023/10/25 02:34:35;;;;;;;1.40;1.23;;;;;;;;;;5050339;28;20203;-65
2023/10/25 02:37:03;;;;;;;1.37;1.27;;;;;;;;;;5048765;28;20239;-65
2023/10/25 02:39:30;;;;;;;1.77;1.30;;;;;;;;;;5048189;28;20203;-71
2023/10/25 02:41:57;;;;;;;2.60;1.60;;;;;;;;;;5044480;28;20210;-69
2023/10/25 02:44:24;;;;;;;1.37;1.20;;;;;;;;;;5048956;28;20208;-72
2023/10/25 02:46:51;;;;;;;4.63;1.30;;;;;;;;;;5050714;28;20226;-71
2023/10/25 02:49:19;;;;;;;3.07;1.50;;;;;;;;;;5049751;28;20199;-70
2023/10/25 02:51:47;;;;;;;2.63;1.33;;;;;;;;;;5049241;28;20227;-71
2023/10/25 02:54:14;;;;;;;1.80;1.53;;;;;;;;;;5049365;28;20207;-71
2023/10/25 02:56:41;;;;;;;2.67;1.33;;;;;;;;;;5048740;28;20203;-71
2023/10/25 02:59:08;;;;;;;1.77;1.30;;;;;;;;;;5047468;28;20208;-71
2023/10/25 03:01:35;;;;;;;3.13;1.80;;;;;;;;;;5047906;28;20203;-71
2023/10/25 03:04:03;;;;;;;3.27;1.47;;;;;;;;;;5048374;28;20203;-70
2023/10/25 03:06:31;;;;;;;1.87;1.53;;;;;;;;;;5049159;28;20481;-71
2023/10/25 03:08:58;;;;;;;1.50;1.40;;;;;;;;;;5050644;28;20200;-71
2023/10/25 03:11:25;;;;;;;2.67;1.83;;;;;;;;;;5047435;28;20223;-71
2023/10/25 03:13:52;;;;;;;2.70;1.40;;;;;;;;;;5049149;28;20195;-72
2023/10/25 03:16:20;;;;;;;4.17;1.70;;;;;;;;;;5049083;28;20382;-72
2023/10/25 03:18:47;;;;;;;1.80;1.70;;;;;;;;;;5049499;28;20202;-72
2023/10/25 03:21:14;;;;;;;2.70;1.70;;;;;;;;;;5048970;28;20211;-72
2023/10/25 03:23:42;;;;;;;2.27;1.50;;;;;;;;;;5048835;28;20211;-72
2023/10/25 03:26:11;;;;;;;3.07;1.70;;;;;;;;;;5047777;28;20219;-71
2023/10/25 03:28:38;;;;;;;2.07;1.43;;;;;;;;;;5052010;28;20214;-72
2023/10/25 03:31:05;;;;;;;2.27;1.80;;;;;;;;;;5050002;28;20254;-72
2023/10/25 03:33:33;;;;;;;3.13;2.00;;;;;;;;;;5052921;28;20249;-71
2023/10/25 03:36:00;;;;;;;3.37;1.90;;;;;;;;;;5053575;28;20213;-72
2023/10/25 03:38:26;;;;;;;2.73;1.73;;;;;;;;;;5052444;28;20192;-70
2023/10/25 03:41:02;;;;;;;3.03;1.80;;;;;;;;;;5051703;28;20203;-72
2023/10/25 03:43:29;;;;;;;2.87;1.90;;;;;;;;;;5052386;28;20199;-72
2023/10/25 03:45:56;;;;;;;1.97;1.70;;;;;;;;;;5052570;28;20222;-72
2023/10/25 03:48:22;;;;;;;2.87;1.77;;;;;;;;;;5052648;28;20271;-72
2023/10/25 03:50:49;;;;;;;4.57;1.80;;;;;;;;;;5051500;28;20223;-71
2023/10/25 03:53:17;;;;;;;2.60;2.00;;;;;;;;;;5053128;28;20200;-72
2023/10/25 03:55:53;;;;;;;3.03;1.97;;;;;;;;;;5053086;28;20294;-72
2023/10/25 03:58:21;;;;;;;3.93;1.97;;;;;;;;;;5051262;28;20203;-72
2023/10/25 04:00:49;;;;;;;2.10;1.80;;;;;;;;;;5050657;28;20215;-72
2023/10/25 04:03:16;;;;;;;2.80;1.70;;;;;;;;;;5052298;28;20207;-72
2023/10/25 04:05:44;;;;;;;3.63;1.73;;;;;;;;;;5051167;28;20195;-72
2023/10/25 04:08:11;;;;;;;4.40;1.80;;;;;;;;;;5052478;28;20204;-72
2023/10/25 04:10:38;;;;;;;1.83;1.70;;;;;;;;;;5050873;28;20199;-72
2023/10/25 04:13:05;;;;;;;4.23;2.00;;;;;;;;;;5053130;28;20223;-72
2023/10/25 04:15:35;;;;;;;2.90;1.87;;;;;;;;;;5053085;28;20203;-72
2023/10/25 04:18:02;;;;;;;2.67;1.47;;;;;;;;;;5051710;28;20217;-72
2023/10/25 04:20:32;;;;;;;2.00;1.57;;;;;;;;;;5052315;28;20199;-72
2023/10/25 04:22:59;;;;;;;1.97;1.73;;;;;;;;;;5049873;28;20200;-72
2023/10/25 04:25:26;;;;;;;1.73;1.50;;;;;;;;;;5051016;28;20211;-72
2023/10/25 04:27:54;;;;;;;1.70;1.60;;;;;;;;;;5048543;28;20529;-72
2023/10/25 04:30:21;;;;;;;6.30;1.90;;;;;;;;;;5051149;28;20215;-72
2023/10/25 04:32:49;;;;;;;2.70;1.43;;;;;;;;;;5050348;28;20225;-72
2023/10/25 04:35:17;;;;;;;3.33;1.80;;;;;;;;;;5052941;28;20292;-71
2023/10/25 04:37:44;;;;;;;5.27;1.90;;;;;;;;;;5051364;28;20271;-72
2023/10/25 04:40:12;;;;;;;2.70;2.13;;;;;;;;;;5053371;28;20215;-72
2023/10/25 04:42:39;;;;;;;1.83;1.73;;;;;;;;;;5046997;28;20207;-71
2023/10/25 04:45:06;;;;;;;3.67;2.00;;;;;;;;;;5048096;28;20214;-72
2023/10/25 04:47:33;;;;;;;3.17;2.20;;;;;;;;;;5051910;28;20203;-72
2023/10/25 04:50:04;;;;;;;2.77;2.20;;;;;;;;;;5051712;28;20204;-71
2023/10/25 04:52:31;;;;;;;4.10;2.00;;;;;;;;;;5053515;28;20294;-71
2023/10/25 04:54:59;;;;;;;3.80;2.10;;;;;;;;;;5052130;28;20211;-72
2023/10/25 04:57:26;;;;;;;2.60;1.90;;;;;;;;;;5049877;28;20215;-72
2023/10/25 04:59:53;;;;;;;4.70;2.07;;;;;;;;;;5050588;28;20200;-72
2023/10/25 05:02:20;;;;;;;2.93;2.07;;;;;;;;;;5048611;28;20206;-72
2023/10/25 05:04:48;;;;;;;3.67;2.03;;;;;;;;;;5051683;28;20205;-72
2023/10/25 05:07:17;;;;;;;5.90;2.60;;;;;;;;;;5047045;28;20203;-72
2023/10/25 05:09:44;;;;;;;3.10;2.67;;;;;;;;;;5049835;28;20215;-72
2023/10/25 05:12:14;;;;;;;5.20;2.83;;;;;;;;;;5050822;28;20227;-72
2023/10/25 05:14:41;;;;;;;2.60;2.40;;;;;;;;;;5049188;28;20209;-71
2023/10/25 05:17:09;;;;;;;4.20;2.30;;;;;;;;;;5050352;28;20204;-72
2023/10/25 05:19:36;;;;;;;2.93;2.53;;;;;;;;;;5051471;28;20559;-66
2023/10/25 05:22:06;;;;;;;3.60;2.40;;;;;;;;;;5051436;28;20207;-67
2023/10/25 05:24:35;;;;;;;7.23;2.33;;;;;;;;;;5050125;28;20238;-66
2023/10/25 05:27:03;;;;;;;2.90;2.57;;;;;;;;;;5050428;28;20203;-65
2023/10/25 05:29:30;;;;;;;3.03;2.47;;;;;;;;;;5048274;28;20226;-66
2023/10/25 05:32:00;;;;;;;3.63;2.50;;;;;;;;;;5047155;28;20230;-65
2023/10/25 05:34:28;;;;;;;2.60;2.30;;;;;;;;;;5038281;28;20203;-67
2023/10/25 05:36:55;;;;;;;2.77;2.10;;;;;;;;;;5042951;28;20223;-68
2023/10/25 05:39:22;;;;;;;2.63;2.43;;;;;;;;;;5034186;28;20207;-68
2023/10/25 05:41:51;;;;;;;2.63;2.00;;;;;;;;;;5039907;28;20199;-66
2023/10/25 05:44:20;;;;;;;7.93;2.80;;;;;;;;;;5040673;28;20294;-67
2023/10/25 05:46:47;;;;;;;3.63;2.57;;;;;;;;;;5047264;28;20211;-67
2023/10/25 05:49:14;;;;;;;2.97;2.73;;;;;;;;;;5050223;28;20212;-66
2023/10/25 05:51:42;;;;;;;3.03;2.40;;;;;;;;;;5042946;28;20227;-67
2023/10/25 05:54:09;;;;;;;3.20;2.70;;;;;;;;;;5048952;28;20286;-66
2023/10/25 05:56:37;;;;;;;3.43;2.40;;;;;;;;;;5051360;28;20207;-65
2023/10/25 05:59:06;;;;;;;4.43;3.20;;;;;;;;;;5051225;28;20196;-66
2023/10/25 06:01:36;;;;;;;2.53;2.30;;;;;;;;;;5049847;28;20192;-65
2023/10/25 06:04:05;;;;;;;2.40;2.20;;;;;;;;;;5049449;28;20206;-65
2023/10/25 06:06:34;;;;;;;3.83;2.40;;;;;;;;;;5050924;28;20273;-66
2023/10/25 06:09:01;;;;;;;4.37;2.37;;;;;;;;;;5045713;28;20207;-65
2023/10/25 06:11:29;;;;;;;2.53;2.30;;;;;;;;;;5046989;28;20211;-66
2023/10/25 06:13:56;;;;;;;2.83;2.63;;;;;;;;;;5046088;28;20207;-66
2023/10/25 06:16:24;;;;;;;3.33;2.90;;;;;;;;;;5043641;28;20201;-66
2023/10/25 06:18:53;;;;;;;3.13;2.53;;;;;;;;;;5043764;28;20191;-65
2023/10/25 06:21:20;;;;;;;5.40;2.70;;;;;;;;;;5048707;28;20246;-65
2023/10/25 06:23:47;;;;;;;5.93;2.80;;;;;;;;;;5047464;28;20196;-65
2023/10/25 06:26:14;;;;;;;7.93;5.37;;;;;;;;;;5048070;28;20290;-66
2023/10/25 06:28:41;;;;;;;9.43;6.47;;;;;;;;;;5049380;28;20207;-72
2023/10/25 06:31:11;;;;;;;6.40;4.90;;;;;;;;;;5047996;28;20215;-71
2023/10/25 06:33:41;;;;;;;5.37;4.37;;;;;;;;;;5040812;28;20211;-71
2023/10/25 06:36:08;;;;;;;5.40;4.90;;;;;;;;;;5044279;28;20235;-72
2023/10/25 06:38:36;;;;;;;5.23;4.73;;;;;;;;;;5043973;28;20207;-72
2023/10/25 06:41:03;;;;;;;4.93;3.80;;;;;;;;;;5045646;28;20203;-72
2023/10/25 06:43:31;;;;;;;4.63;3.57;;;;;;;;;;5044675;28;20229;-72
2023/10/25 06:45:59;;;;;;;4.63;3.40;;;;;;;;;;5044881;28;20290;-72
2023/10/25 06:48:26;;;;;;;9.37;7.30;;;;;;;;;;5051454;28;20222;-71
2023/10/25 06:50:55;;;;;;;6.80;6.10;;;;;;;;;;5042277;28;20206;-70
2023/10/25 06:53:23;;;;;;;9.90;8.07;;;;;;;;;;5045327;28;20257;-72
2023/10/25 06:55:51;;;;;;;5.83;5.20;;;;;;;;;;5040251;28;20207;-72
2023/10/25 06:58:18;;;;;;;4.57;4.17;;;;;;;;;;5044695;28;20204;-71
2023/10/25 07:00:45;;;;;;;4.13;3.73;;;;;;;;;;5044959;28;20199;-71
2023/10/25 07:03:13;;;;;;;3.60;3.30;;;;;;;;;;5049824;28;20288;-71
2023/10/25 07:05:43;;;;;;;7.60;3.53;;;;;;;;;;5048091;28;20212;-70
2023/10/25 07:08:12;;;;;;;3.67;3.00;;;;;;;;;;5048044;28;20302;-71
2023/10/25 07:10:39;;;;;;;4.37;3.83;;;;;;;;;;5045257;28;20446;-71
2023/10/25 07:13:06;;;;;;;4.03;3.37;;;;;;;;;;5048473;28;20317;-70
2023/10/25 07:15:35;;;;;;;3.93;3.20;;;;;;;;;;5046855;28;20215;-71
2023/10/25 07:18:02;;;;;;;3.30;3.00;;;;;;;;;;5042461;28;20256;-71
2023/10/25 07:20:29;;;;;;;3.43;3.13;;;;;;;;;;5047084;28;20203;-71
2023/10/25 07:22:56;;;;;;;2.90;2.70;;;;;;;;;;5048750;28;20298;-72
2023/10/25 07:25:25;;;;;;;2.57;2.30;;;;;;;;;;5045538;28;20212;-71
2023/10/25 07:27:52;;;;;;;2.40;2.20;;;;;;;;;;5046931;28;20214;-71
2023/10/25 07:30:19;;;;;;;2.00;1.90;;;;;;;;;;5051520;28;20215;-71
2023/10/25 07:32:46;;;;;;;2.20;2.00;;;;;;;;;;5049479;28;20223;-72
2023/10/25 07:35:13;;;;;;;2.90;1.77;;;;;;;;;;5050787;28;20218;-71
2023/10/25 07:37:40;;;;;;;2.10;1.57;;;;;;;;;;5052640;28;20238;-71
2023/10/25 07:40:08;;;;;;;1.60;1.50;;;;;;;;;;5049091;28;20211;-72
2023/10/25 07:42:37;;;;;;;2.63;1.60;;;;;;;;;;5050426;28;20200;-72
2023/10/25 07:45:04;;;;;;;1.40;1.30;;;;;;;;;;5048504;28;20294;-71
2023/10/25 07:47:31;;;;;;;1.93;1.10;;;;;;;;;;5044276;28;20207;-69
2023/10/25 07:49:58;;;;;;;1.27;0.93;;;;;;;;;;5051713;28;20222;-71
2023/10/25 07:52:29;;;;;;;1.90;1.00;;;;;;;;;;5052072;28;20230;-69
2023/10/25 07:54:56;;;;;;;2.30;1.30;;;;;;;;;;5039679;28;20250;-71
2023/10/25 07:57:24;;;;;;;1.43;1.00;;;;;;;;;;5049490;28;20207;-72
2023/10/25 07:59:53;;;;;;;1.80;1.30;;;;;;;;;;5049789;28;20208;-72
2023/10/25 08:02:20;;;;;;;1.63;1.00;;;;;;;;;;5046348;28;20208;-72
2023/10/25 08:04:47;;;;;;;0.90;0.90;;;;;;;;;;5047742;28;20203;-72
2023/10/25 08:07:14;;;;;;;1.93;0.90;;;;;;;;;;5049041;28;20509;-72
2023/10/25 08:09:42;;;;;;;2.43;1.00;;;;;;;;;;5047466;28;20203;-72
2023/10/25 08:12:09;;;;;;;1.00;1.00;;;;;;;;;;5047927;28;20273;-72
2023/10/25 08:14:37;;;;;;;2.90;0.80;;;;;;;;;;5051624;28;20290;-71
2023/10/25 08:17:05;;;;;;;1.10;1.00;;;;;;;;;;5045239;28;20213;-70
2023/10/25 08:19:32;;;;;;;2.27;1.20;;;;;;;;;;5046317;28;20211;-71
2023/10/25 08:22:00;;;;;;;2.10;1.30;;;;;;;;;;5046849;28;20218;-71
2023/10/25 08:24:28;;;;;;;1.20;0.90;;;;;;;;;;5048932;28;20195;-71
2023/10/25 08:26:58;;;;;;;1.50;1.00;;;;;;;;;;5046608;28;20195;-71
2023/10/25 08:29:25;;;;;;;2.20;1.10;;;;;;;;;;5046235;28;20200;-71
2023/10/25 08:31:53;;;;;;;0.97;0.97;;;;;;;;;;5047945;28;20207;-72
2023/10/25 08:34:21;;;;;;;1.67;1.07;;;;;;;;;;5048763;28;20489;-70
2023/10/25 08:36:49;;;;;;;1.63;1.10;;;;;;;;;;5046989;28;20620;-70
2023/10/25 08:39:16;;;;;;;0.97;0.97;;;;;;;;;;5049386;28;20284;-71
2023/10/25 08:41:46;;;;;;;4.73;1.10;;;;;;;;;;5046075;28;20192;-71
2023/10/25 08:44:13;;;;;;;1.77;1.20;;;;;;;;;;5044799;28;20200;-69
2023/10/25 08:46:41;;;;;;;2.03;1.00;;;;;;;;;;5046611;28;20203;-71
2023/10/25 08:49:08;;;;;;;1.20;1.10;;;;;;;;;;5047654;28;20203;-63
2023/10/25 08:51:37;;;;;;;1.00;1.00;;;;;;;;;;5050741;28;20200;-63
2023/10/25 08:54:05;;;;;;;0.90;0.90;;;;;;;;;;5044605;28;20234;-63
2023/10/25 08:56:32;;;;;;;2.60;1.10;;;;;;;;;;5044383;28;20235;-65
2023/10/25 08:59:00;;;;;;;1.20;1.10;;;;;;;;;;5045922;28;20208;-63
2023/10/25 09:01:27;;;;;;;4.47;1.20;;;;;;;;;;5049157;28;20203;-64
2023/10/25 09:03:54;;;;;;;1.00;1.00;;;;;;;;;;5042593;28;20203;-63
2023/10/25 09:06:26;;;;;;;1.90;1.10;;;;;;;;;;5045932;28;20211;-64
2023/10/25 09:09:02;;;;;;;2.07;1.57;;;;;;;;;;5049558;28;20225;-64
2023/10/25 09:11:39;;;;;;;1.37;1.23;;;;;;;;;;5047819;28;20290;-64
2023/10/25 09:14:06;;;;;;;1.07;0.97;;;;;;;;;;5048089;28;20253;-63
2023/10/25 09:16:33;;;;;;;2.17;0.93;;;;;;;;;;5047192;28;20200;-64
2023/10/25 09:19:04;;;;;;;5.50;1.10;;;;;;;;;;5046378;28;20208;-63
2023/10/25 09:21:31;;;;;;;1.47;1.03;;;;;;;;;;5044958;28;20203;-63
2023/10/25 09:24:02;;;;;;;1.50;0.90;;;;;;;;;;5043105;28;20210;-64
2023/10/25 09:26:34;;;;;;;1.80;0.97;;;;;;;;;;5046828;28;20211;-65
2023/10/25 09:29:02;;;;;;;4.43;0.97;;;;;;;;;;5046681;28;20207;-63
2023/10/25 09:31:30;;;;;;;4.20;0.90;;;;;;;;;;5046628;28;20200;-63
2023/10/25 09:34:08;;;;;;;0.80;0.80;;;;;;;;;;5047004;28;20227;-63
2023/10/25 09:36:36;;;;;;;0.83;0.83;;;;;;;;;;5046240;28;20322;-64
2023/10/25 09:39:04;;;;;;;1.23;0.73;;;;;;;;;;5049315;28;20226;-63
2023/10/25 09:41:37;;;;;;;2.33;0.90;;;;;;;;;;5046627;28;20298;-63
2023/10/25 09:44:07;;;;;;;0.70;0.70;;;;;;;;;;5044193;28;20295;-63
2023/10/25 09:46:35;;;;;;;0.73;0.73;;;;;;;;;;5044101;28;20200;-63
2023/10/25 09:49:04;;;;;;;0.80;0.80;;;;;;;;;;5048498;28;20242;-63
2023/10/25 09:51:48;;;;;;;1.13;0.83;;;;;;;;;;5041781;28;20250;-64
2023/10/25 09:54:15;;;;;;;1.33;0.87;;;;;;;;;;5047554;28;20216;-63
2023/10/25 09:56:44;;;;;;;1.07;0.77;;;;;;;;;;5046304;28;20204;-64
2023/10/25 09:59:13;;;;;;;0.63;0.63;;;;;;;;;;5047596;28;20219;-63
2023/10/25 10:01:40;;;;;;;1.00;0.60;;;;;;;;;;5042146;28;20207;-63
2023/10/25 10:04:12;;;;;;;2.10;0.70;;;;;;;;;;5042749;28;20207;-63
2023/10/25 10:06:41;;;;;;;3.07;0.90;;;;;;;;;;5046064;28;20211;-63
2023/10/25 10:09:14;;;;;;;0.80;0.80;;;;;;;;;;5048878;28;20242;-64
2023/10/25 10:11:45;;;;;;;1.67;0.70;;;;;;;;;;5045820;28;20199;-63
2023/10/25 10:14:33;;;;;;;0.60;0.60;;;;;;;;;;5046213;28;20233;-64
2023/10/25 10:17:01;;;;;;;1.30;0.80;;;;;;;;;;5045269;28;20211;-63
2023/10/25 10:19:28;;;;;;;0.90;0.90;;;;;;;;;;5048552;28;20245;-63
2023/10/25 10:22:05;;;;;;;0.80;0.70;;;;;;;;;;5047544;28;20203;-63
2023/10/25 10:24:42;;;;;;;0.90;0.90;;;;;;;;;;5041550;28;20194;-64
2023/10/25 10:27:09;;;;;;;0.60;0.60;;;;;;;;;;5043768;28;20211;-66
2023/10/25 10:29:45;;;;;;;0.60;0.60;;;;;;;;;;5045070;28;20219;-63
2023/10/25 10:32:12;;;;;;;0.60;0.60;;;;;;;;;;5040787;28;20440;-65
2023/10/25 10:34:42;;;;;;;0.70;0.70;;;;;;;;;;5047508;28;20219;-64
2023/10/25 10:37:10;;;;;;;0.60;0.60;;;;;;;;;;5048225;28;20235;-64
2023/10/25 10:39:38;;;;;;;0.50;0.50;;;;;;;;;;5044592;28;20200;-64
2023/10/25 10:42:05;;;;;;;0.70;0.70;;;;;;;;;;5043743;28;20253;-64
2023/10/25 10:44:35;;;;;;;0.50;0.50;;;;;;;;;;5047119;28;20203;-64
2023/10/25 10:47:06;;;;;;;0.50;0.50;;;;;;;;;;5046056;28;20210;-63
2023/10/25 10:49:35;;;;;;;0.50;0.50;;;;;;;;;;5041343;28;20199;-64
2023/10/25 10:52:03;;;;;;;0.77;0.67;;;;;;;;;;5045423;28;20221;-64
2023/10/25 10:54:31;;;;;;;0.60;0.60;;;;;;;;;;5044496;28;20247;-64
2023/10/25 10:56:58;;;;;;;0.50;0.50;;;;;;;;;;5041302;28;20211;-64
2023/10/25 10:59:28;;;;;;;0.83;0.70;;;;;;;;;;5032796;28;20449;-64
2023/10/25 11:01:55;;;;;;;0.70;0.70;;;;;;;;;;5038454;28;20212;-64
2023/10/25 11:04:24;;;;;;;0.50;0.50;;;;;;;;;;5037207;28;20206;-63
2023/10/25 11:06:51;;;;;;;0.77;0.50;;;;;;;;;;5047983;28;20309;-63
2023/10/25 11:09:18;;;;;;;0.63;0.63;;;;;;;;;;5043550;28;20207;-69
2023/10/25 11:11:46;;;;;;;0.60;0.60;;;;;;;;;;5037507;28;20211;-69
2023/10/25 11:14:13;;;;;;;0.67;0.67;;;;;;;;;;5043974;28;20215;-68
2023/10/25 11:16:40;;;;;;;0.80;0.60;;;;;;;;;;5040398;28;20196;-69
2023/10/25 11:19:08;;;;;;;0.53;0.53;;;;;;;;;;5045996;28;20267;-69
2023/10/25 11:21:36;;;;;;;0.67;0.67;;;;;;;;;;5038107;28;20272;-69
2023/10/25 11:24:06;;;;;;;0.83;0.60;;;;;;;;;;5041201;28;20214;-70
2023/10/25 11:26:41;;;;;;;0.50;0.50;;;;;;;;;;5046277;28;20206;-70
2023/10/25 11:29:08;;;;;;;0.60;0.60;;;;;;;;;;5045055;28;20207;-70
2023/10/25 11:31:36;;;;;;;1.23;0.80;;;;;;;;;;5047661;28;20196;-69
2023/10/25 11:34:03;;;;;;;0.50;0.50;;;;;;;;;;5045680;28;20248;-69
2023/10/25 11:36:31;;;;;;;0.60;0.60;;;;;;;;;;5045128;28;20241;-70
2023/10/25 11:39:06;;;;;;;0.60;0.60;;;;;;;;;;5046849;28;20242;-69
2023/10/25 11:41:33;;;;;;;0.70;0.70;;;;;;;;;;5047333;28;20572;-70
2023/10/25 11:44:01;;;;;;;1.07;0.63;;;;;;;;;;5045304;28;20202;-69
2023/10/25 11:46:29;;;;;;;0.73;0.73;;;;;;;;;;5047576;28;20214;-69
2023/10/25 11:49:00;;;;;;;1.00;1.00;;;;;;;;;;5047332;28;20290;-69
2023/10/25 11:51:27;;;;;;;1.33;1.23;;;;;;;;;;5045626;28;20196;-68
2023/10/25 11:53:54;;;;;;;4.27;3.87;;;;;;;;;;5043331;28;20223;-68
2023/10/25 11:56:24;;;;;;;1.52;1.23;;;;;;;;;;5048266;28;20206;-69
2023/10/25 11:58:51;;;;;;;1.53;0.80;;;;;;;;;;5045587;28;20243;-69
2023/10/25 12:01:19;;;;;;;0.80;0.80;;;;;;;;;;5046844;28;20214;-67
2023/10/25 12:03:46;;;;;;;0.90;0.90;;;;;;;;;;5047452;28;20199;-68
2023/10/25 12:06:13;;;;;;;0.80;0.80;;;;;;;;;;5051093;28;20208;-68
2023/10/25 12:08:41;;;;;;;0.70;0.70;;;;;;;;;;5049954;28;20249;-68
2023/10/25 12:11:10;;;;;;;1.13;0.80;;;;;;;;;;5046234;28;20199;-69
2023/10/25 12:13:38;;;;;;;1.13;0.68;;;;;;;;;;5047722;28;20199;-68
2023/10/25 12:16:06;;;;;;;0.60;0.60;;;;;;;;;;5047674;28;20200;-70
2023/10/25 12:18:35;;;;;;;0.50;0.50;;;;;;;;;;5049738;28;20204;-68
2023/10/25 12:21:02;;;;;;;0.50;0.50;;;;;;;;;;5051101;28;20207;-63
2023/10/25 12:23:30;;;;;;;0.80;0.55;;;;;;;;;;5046678;28;20210;-63
2023/10/25 12:25:57;;;;;;;0.50;0.50;;;;;;;;;;5046976;28;20226;-63
2023/10/25 12:28:24;;;;;;;0.93;0.82;;;;;;;;;;5047330;28;20206;-62
2023/10/25 12:30:52;;;;;;;0.63;0.63;;;;;;;;;;5047933;28;20208;-63
2023/10/25 12:33:19;;;;;;;0.70;0.70;;;;;;;;;;5046549;28;20200;-63
2023/10/25 12:35:47;;;;;;;0.55;0.55;;;;;;;;;;5046338;28;20241;-62
2023/10/25 12:38:15;;;;;;;1.50;0.63;;;;;;;;;;5042167;28;20199;-64
2023/10/25 12:40:42;;;;;;;1.55;0.70;;;;;;;;;;5043277;28;20214;-63
2023/10/25 12:43:09;;;;;;;0.83;0.60;;;;;;;;;;5042692;28;20207;-62
2023/10/25 12:45:36;;;;;;;0.70;0.70;;;;;;;;;;5044399;28;20203;-62
2023/10/25 12:48:04;;;;;;;0.70;0.70;;;;;;;;;;5046850;28;20227;-64
2023/10/25 12:50:32;;;;;;;0.70;0.70;;;;;;;;;;5045720;28;20213;-62
2023/10/25 12:52:59;;;;;;;0.60;0.60;;;;;;;;;;5047742;28;20212;-62
2023/10/25 12:55:26;;;;;;;0.57;0.57;;;;;;;;;;5049354;28;20231;-63
2023/10/25 12:57:53;;;;;;;0.70;0.70;;;;;;;;;;5047676;28;20195;-63
2023/10/25 13:00:20;;;;;;;0.50;0.50;;;;;;;;;;5048165;28;20207;-62
2023/10/25 13:02:47;;;;;;;1.05;0.60;;;;;;;;;;5050614;28;20214;-62
2023/10/25 13:05:15;;;;;;;0.50;0.50;;;;;;;;;;5047899;28;20205;-62
2023/10/25 13:07:43;;;;;;;0.50;0.50;;;;;;;;;;5048262;28;20204;-64
2023/10/25 13:10:11;;;;;;;0.65;0.60;;;;;;;;;;5050733;28;20215;-63
2023/10/25 13:12:38;;;;;;;0.60;0.60;;;;;;;;;;5048056;28;20200;-64
2023/10/25 13:15:05;;;;;;;0.85;0.60;;;;;;;;;;5049517;28;20215;-62
2023/10/25 13:17:32;;;;;;;0.80;0.80;;;;;;;;;;5047447;28;20214;-63
2023/10/25 13:20:02;;;;;;;1.45;0.80;;;;;;;;;;5045108;28;20207;-63
2023/10/25 13:22:31;;;;;;;0.68;0.68;;;;;;;;;;5047453;28;20269;-62
2023/10/25 13:24:58;;;;;;;0.80;0.80;;;;;;;;;;5047451;28;20203;-64
2023/10/25 13:27:25;;;;;;;0.60;0.60;;;;;;;;;;5048341;28;20270;-64
2023/10/25 13:29:52;;;;;;;0.70;0.70;;;;;;;;;;5045277;28;20212;-68
2023/10/25 13:32:20;;;;;;;0.70;0.70;;;;;;;;;;5047569;28;20205;-68
2023/10/25 13:34:47;;;;;;;0.80;0.80;;;;;;;;;;5047586;28;20234;-70
2023/10/25 13:37:14;;;;;;;0.70;0.70;;;;;;;;;;5047239;28;20223;-68
2023/10/25 13:39:43;;;;;;;0.70;0.70;;;;;;;;;;5049362;28;20206;-68
2023/10/25 13:42:11;;;;;;;0.70;0.70;;;;;;;;;;5048553;28;20208;-68
2023/10/25 13:44:38;;;;;;;0.90;0.90;;;;;;;;;;5050172;28;20199;-70
2023/10/25 13:47:05;;;;;;;0.90;0.80;;;;;;;;;;5046737;28;20204;-70
2023/10/25 13:49:32;;;;;;;1.40;1.30;;;;;;;;;;5048594;28;20212;-70
2023/10/25 13:51:59;;;;;;;1.90;1.80;;;;;;;;;;5047424;28;20305;-70
2023/10/25 13:54:26;;;;;;;1.63;1.40;;;;;;;;;;5045852;28;20227;-69
2023/10/25 13:56:55;;;;;;;1.90;1.80;;;;;;;;;;5046046;28;20203;-69
2023/10/25 13:59:23;;;;;;;2.88;2.30;;;;;;;;;;5045816;28;20208;-70
2023/10/25 14:01:50;;;;;;;1.42;1.38;;;;;;;;;;5049251;28;20204;-69
2023/10/25 14:04:17;;;;;;;2.78;2.33;;;;;;;;;;5045401;28;20199;-70
2023/10/25 14:06:44;;;;;;;2.13;2.03;;;;;;;;;;5046487;28;20208;-70
2023/10/25 14:09:12;;;;;;;2.95;2.72;;;;;;;;;;5048468;28;20210;-70
2023/10/25 14:11:39;;;;;;;2.53;2.42;;;;;;;;;;5051039;28;20270;-70
2023/10/25 14:14:08;;;;;;;2.00;1.77;;;;;;;;;;5048049;28;20222;-69
2023/10/25 14:16:35;;;;;;;3.08;2.78;;;;;;;;;;5048076;28;20234;-70
2023/10/25 14:19:03;;;;;;;2.85;2.55;;;;;;;;;;5038951;28;20214;-69
2023/10/25 14:21:30;;;;;;;2.40;1.90;;;;;;;;;;5048789;28;20206;-69
2023/10/25 14:23:57;;;;;;;1.73;1.63;;;;;;;;;;5049682;28;20208;-70
2023/10/25 14:26:24;;;;;;;1.10;1.00;;;;;;;;;;5046744;28;20192;-69
2023/10/25 14:28:52;;;;;;;1.05;1.00;;;;;;;;;;5045774;28;20211;-69
2023/10/25 14:31:20;;;;;;;0.80;0.80;;;;;;;;;;5042853;28;20207;-69
2023/10/25 14:33:47;;;;;;;1.10;1.10;;;;;;;;;;5046534;28;20207;-70
2023/10/25 14:36:15;;;;;;;1.33;1.33;;;;;;;;;;5035520;28;20326;-68
2023/10/25 14:38:42;;;;;;;1.20;1.10;;;;;;;;;;5046940;28;20207;-63
2023/10/25 14:41:09;;;;;;;0.77;0.77;;;;;;;;;;5050107;28;20207;-63
2023/10/25 14:43:36;;;;;;;1.20;1.10;;;;;;;;;;5048897;28;20484;-63
2023/10/25 14:46:04;;;;;;;1.30;0.80;;;;;;;;;;5045067;28;20204;-63
2023/10/25 14:48:32;;;;;;;1.58;0.90;;;;;;;;;;5048220;28;20204;-63